Portada
METAR-TAF:

METAR-TAF

Aeroports :

Benbecula, Escòcia

latitud: 57-28N, longitud: 007-22W, altitud: 6 m

Observació

L'informe es va fer fa 30 minuts, a les 08:20 UTC
Vent 19 kt del Nord
Temperatura 10°C
Humitat 93%
Pressió 1000 hPa
Visibilitat: 7000 m

METAR: EGPL 060820Z AUTO 35019KT 7000 BKN008/// OVC013/// 10/09 Q1000

Hora: 09:50 (08:50 UTC)

Pronòstic

L'informe es va fer fa 47 minuts, a les 08:03 UTC
Pronòstic vàlid del 06 a les 09 UTC al 06 a les 18 UTC
Vent 20 kt del Nord
Visibilitat 10 km o més
Cel ennuvolat a una alçada de 1200 ft
Temporalment
l' 06 a les 09 UTC al 06 a les 13 UTC
Visibilitat: 7000 m
pluja
Temporalment
l' 06 a les 09 UTC al 06 a les 18 UTC
Vent 22 kt del Nord amb ràfegues de 32 kt
Cel ennuvolat a una alçada de 900 ft
Probabilitat 30% :
Temporalment
l' 06 a les 09 UTC al 06 a les 13 UTC
Cel ennuvolat a una alçada de 400 ft

TAF: EGPL 060803Z 0609/0618 36020KT 9999 BKN012 TEMPO 0609/0613 7000 RA TEMPO 0609/0618 01022G32KT BKN009 PROB30 TEMPO 0609/0613 BKN004

Observacions i pronòstics meteorològics de més de 4000 aeroports (METAR i TAF).

Les estacions disponibles són els punts grocs i vermells al mapa.

Posi el ratolí al punt desitjat per veure el nom de l'estació.

Feu clic per veure les observacions i els pronòstics meteorològics.

Per canviar el mapa: feu clic els botons verds amb una creu de color negre per apropar; al botó verd amb un guió per allunyar la imatge; o en les fletxes verdes per a mapes adjacents.


METAR-TAF: